Time,TemperatureF,DewpointF,PressureIn,WindDirection,WindDirectionDegrees,WindSpeedMPH,WindSpeedGustMPH,Humidity,HourlyPrecipIn,Conditions,Clouds,dailyrainin,SoftwareType,DateUTC
2013-09-03 00:02:00,69.0,64.6,29.85,SSW,203,0.0,0.0,86,0.00,,,0.00,WUHU216HW,2013-09-03 04:02:00,
2013-09-03 00:07:00,68.9,64.3,29.85,SSW,203,0.0,0.0,86,0.00,,,0.00,WUHU216HW,2013-09-03 04:07:00,
2013-09-03 00:13:00,68.7,64.3,29.85,SSW,203,0.0,0.0,86,0.00,,,0.00,WUHU216HW,2013-09-03 04:13:00,
2013-09-03 00:19:00,68.5,64.1,29.85,SSW,203,0.0,0.0,86,0.00,,,0.00,WUHU216HW,2013-09-03 04:19:00,
2013-09-03 00:24:00,68.3,63.9,29.85,SSW,203,0.0,0.0,86,0.00,,,0.00,WUHU216HW,2013-09-03 04:24:00,
2013-09-03 00:29:00,68.1,63.8,29.85,SSW,203,0.0,0.0,86,0.00,,,0.00,WUHU216HW,2013-09-03 04:29:00,
2013-09-03 00:35:00,67.8,63.4,29.84,SSW,203,0.0,0.0,86,0.00,,,0.00,WUHU216HW,2013-09-03 04:35:00,
2013-09-03 00:40:00,67.8,63.4,29.84,SSW,203,0.0,0.0,86,0.00,,,0.00,WUHU216HW,2013-09-03 04:40:00,
2013-09-03 00:46:00,67.8,63.7,29.84,SSW,203,0.0,0.0,87,0.00,,,0.00,WUHU216HW,2013-09-03 04:46:00,
2013-09-03 00:52:00,67.6,63.6,29.84,SSW,203,0.0,0.0,87,0.00,,,0.00,WUHU216HW,2013-09-03 04:52:00,
2013-09-03 00:57:00,67.4,63.4,29.84,SSW,203,0.0,0.0,87,0.00,,,0.00,WUHU216HW,2013-09-03 04:57:00,
2013-09-03 01:02:00,67.2,63.2,29.83,SSW,203,0.0,0.0,87,0.00,,,0.00,WUHU216HW,2013-09-03 05:02:00,
2013-09-03 01:08:00,67.2,63.2,29.83,SSW,203,0.0,0.0,87,0.00,,,0.00,WUHU216HW,2013-09-03 05:08:00,
2013-09-03 01:13:00,67.1,63.0,29.84,SSW,203,0.0,0.0,87,0.00,,,0.00,WUHU216HW,2013-09-03 05:13:00,
2013-09-03 01:19:00,66.9,62.8,29.84,SSW,203,0.0,0.0,87,0.00,,,0.00,WUHU216HW,2013-09-03 05:19:00,
2013-09-03 01:24:00,66.9,62.8,29.84,SSW,203,0.0,0.0,87,0.00,,,0.00,WUHU216HW,2013-09-03 05:24:00,
2013-09-03 01:29:00,66.7,62.7,29.84,SSW,203,0.0,0.0,87,0.00,,,0.00,WUHU216HW,2013-09-03 05:29:00,
2013-09-03 01:35:00,66.5,62.8,29.84,SSW,203,0.0,0.0,88,0.00,,,0.00,WUHU216HW,2013-09-03 05:35:00,
2013-09-03 01:41:00,66.5,62.8,29.84,SSW,203,0.0,0.0,88,0.00,,,0.00,WUHU216HW,2013-09-03 05:41:00,
2013-09-03 01:46:00,66.3,62.6,29.84,SSW,203,0.0,0.0,88,0.00,,,0.00,WUHU216HW,2013-09-03 05:46:00,
2013-09-03 01:52:00,66.2,61.9,29.84,SSW,203,0.0,0.0,87,0.00,,,0.00,WUHU216HW,2013-09-03 05:52:00,
2013-09-03 01:58:00,66.0,61.9,29.84,SSW,203,0.0,0.0,87,0.00,,,0.00,WUHU216HW,2013-09-03 05:58:00,
2013-09-03 02:08:00,65.8,62.1,29.84,SSW,203,0.0,0.0,88,0.00,,,0.00,WUHU216HW,2013-09-03 06:08:00,
2013-09-03 02:14:00,65.4,61.8,29.84,SSW,203,0.0,0.0,88,0.00,,,0.00,WUHU216HW,2013-09-03 06:14:00,
2013-09-03 02:20:00,65.4,61.8,29.84,SSW,203,0.0,0.0,88,0.00,,,0.00,WUHU216HW,2013-09-03 06:20:00,
2013-09-03 02:25:00,65.4,61.8,29.84,SSW,203,0.0,0.0,88,0.00,,,0.00,WUHU216HW,2013-09-03 06:25:00,
2013-09-03 02:31:00,65.3,61.6,29.84,SSW,203,0.0,0.0,88,0.00,,,0.00,WUHU216HW,2013-09-03 06:31:00,
2013-09-03 02:37:00,65.1,61.4,29.83,SSW,203,0.0,0.0,88,0.00,,,0.00,WUHU216HW,2013-09-03 06:37:00,
2013-09-03 02:43:00,65.1,61.4,29.83,SSW,203,0.0,0.0,88,0.00,,,0.00,WUHU216HW,2013-09-03 06:43:00,
2013-09-03 02:48:00,64.9,61.3,29.83,SSW,203,0.0,0.0,88,0.00,,,0.00,WUHU216HW,2013-09-03 06:48:00,
2013-09-03 02:53:00,64.7,61.1,29.83,SSW,203,0.0,0.0,88,0.00,,,0.00,WUHU216HW,2013-09-03 06:53:00,
2013-09-03 02:58:00,64.7,61.1,29.83,SSW,203,0.0,0.0,88,0.00,,,0.00,WUHU216HW,2013-09-03 06:58:00,
2013-09-03 03:04:00,64.5,60.9,29.83,SSW,203,0.0,0.0,88,0.00,,,0.00,WUHU216HW,2013-09-03 07:04:00,
2013-09-03 03:10:00,64.2,60.6,29.83,SSW,203,0.0,0.0,88,0.00,,,0.00,WUHU216HW,2013-09-03 07:10:00,
2013-09-03 03:15:00,64.2,60.9,29.83,SSW,203,0.0,0.0,89,0.00,,,0.00,WUHU216HW,2013-09-03 07:15:00,
2013-09-03 03:20:00,64.2,60.9,29.84,SSW,203,0.0,0.0,89,0.00,,,0.00,WUHU216HW,2013-09-03 07:20:00,
2013-09-03 03:25:00,64.2,60.9,29.83,SSW,203,0.0,0.0,89,0.00,,,0.00,WUHU216HW,2013-09-03 07:25:00,
2013-09-03 03:30:00,64.0,60.8,29.83,SSW,203,0.0,0.0,89,0.00,,,0.00,WUHU216HW,2013-09-03 07:30:00,
2013-09-03 03:41:00,64.0,60.8,29.83,SSW,203,0.0,0.0,89,0.00,,,0.00,WUHU216HW,2013-09-03 07:41:00,
2013-09-03 03:47:00,63.6,60.4,29.84,SSW,203,0.0,0.0,89,0.00,,,0.00,WUHU216HW,2013-09-03 07:47:00,
2013-09-03 03:53:00,63.6,60.4,29.84,SSW,203,0.0,0.0,89,0.00,,,0.00,WUHU216HW,2013-09-03 07:53:00,
2013-09-03 04:04:00,63.5,60.2,29.83,SSW,203,0.0,0.0,89,0.00,,,0.00,WUHU216HW,2013-09-03 08:04:00,
2013-09-03 04:09:00,63.3,60.0,29.84,SSW,203,0.0,0.0,89,0.00,,,0.00,WUHU216HW,2013-09-03 08:09:00,
2013-09-03 04:15:00,63.1,59.9,29.84,SSW,203,0.0,0.0,89,0.00,,,0.00,WUHU216HW,2013-09-03 08:15:00,
2013-09-03 04:20:00,63.1,59.9,29.84,SSW,203,0.0,0.0,89,0.00,,,0.00,WUHU216HW,2013-09-03 08:20:00,
2013-09-03 04:26:00,62.9,59.7,29.84,SSW,203,0.0,0.0,89,0.00,,,0.00,WUHU216HW,2013-09-03 08:26:00,
2013-09-03 04:31:00,62.9,60.0,29.84,SSW,203,0.0,0.0,90,0.00,,,0.00,WUHU216HW,2013-09-03 08:31:00,
2013-09-03 04:36:00,62.9,60.0,29.84,SSW,203,0.0,0.0,90,0.00,,,0.00,WUHU216HW,2013-09-03 08:36:00,
2013-09-03 04:41:00,62.9,60.0,29.84,SSW,203,0.0,0.0,90,0.00,,,0.00,WUHU216HW,2013-09-03 08:41:00,
2013-09-03 04:47:00,62.9,60.0,29.84,SSW,203,0.0,0.0,90,0.00,,,0.00,WUHU216HW,2013-09-03 08:47:00,
2013-09-03 04:53:00,62.9,60.0,29.84,SSW,203,0.0,0.0,90,0.00,,,0.00,WUHU216HW,2013-09-03 08:53:00,
2013-09-03 04:58:00,62.9,60.0,29.85,SSW,203,0.0,0.0,90,0.00,,,0.00,WUHU216HW,2013-09-03 08:58:00,
2013-09-03 05:03:00,62.7,60.1,29.85,SSW,203,0.0,0.0,91,0.00,,,0.00,WUHU216HW,2013-09-03 09:03:00,
2013-09-03 05:09:00,62.7,60.1,29.85,SSW,203,0.0,0.0,91,0.00,,,0.00,WUHU216HW,2013-09-03 09:09:00,
2013-09-03 05:15:00,62.7,60.1,29.85,SSW,203,0.0,0.0,91,0.00,,,0.00,WUHU216HW,2013-09-03 09:15:00,
2013-09-03 05:20:00,62.4,59.8,29.85,SSW,203,0.0,0.0,91,0.00,,,0.00,WUHU216HW,2013-09-03 09:20:00,
2013-09-03 05:26:00,62.4,59.8,29.85,SSW,203,0.0,0.0,91,0.00,,,0.00,WUHU216HW,2013-09-03 09:26:00,
2013-09-03 05:31:00,62.4,59.8,29.85,SSW,203,0.0,0.0,91,0.00,,,0.00,WUHU216HW,2013-09-03 09:31:00,
2013-09-03 05:36:00,62.4,59.8,29.86,SSW,203,0.0,0.0,91,0.00,,,0.00,WUHU216HW,2013-09-03 09:36:00,
2013-09-03 05:42:00,62.4,59.8,29.86,SSW,203,0.0,0.0,91,0.00,,,0.00,WUHU216HW,2013-09-03 09:42:00,
2013-09-03 05:47:00,62.4,59.8,29.86,SSW,203,0.0,0.0,91,0.00,,,0.00,WUHU216HW,2013-09-03 09:47:00,
2013-09-03 05:52:00,62.4,59.8,29.86,SSW,203,0.0,0.0,91,0.00,,,0.00,WUHU216HW,2013-09-03 09:52:00,
2013-09-03 05:57:00,62.2,59.6,29.86,SSW,203,0.0,0.0,91,0.00,,,0.00,WUHU216HW,2013-09-03 09:57:00,
2013-09-03 06:02:00,62.2,59.6,29.86,SSW,203,0.0,0.0,91,0.00,,,0.00,WUHU216HW,2013-09-03 10:02:00,
2013-09-03 06:08:00,62.2,59.6,29.86,SSW,203,0.0,0.0,91,0.00,,,0.00,WUHU216HW,2013-09-03 10:08:00,
2013-09-03 06:13:00,62.2,59.6,29.87,SSW,203,0.0,0.0,91,0.00,,,0.00,WUHU216HW,2013-09-03 10:13:00,
2013-09-03 06:18:00,62.4,59.8,29.87,SSW,203,0.0,0.0,91,0.00,,,0.00,WUHU216HW,2013-09-03 10:18:00,
2013-09-03 06:24:00,62.4,59.8,29.87,SSW,203,0.0,0.0,91,0.00,,,0.00,WUHU216HW,2013-09-03 10:24:00,
2013-09-03 06:30:00,62.4,59.8,29.87,SSW,203,0.0,0.0,91,0.00,,,0.00,WUHU216HW,2013-09-03 10:30:00,
2013-09-03 06:35:00,62.7,60.4,29.87,SSW,203,0.0,0.0,92,0.00,,,0.00,WUHU216HW,2013-09-03 10:35:00,
2013-09-03 06:40:00,62.7,60.4,29.87,SSW,203,0.0,0.0,92,0.00,,,0.00,WUHU216HW,2013-09-03 10:40:00,
2013-09-03 06:45:00,62.7,60.4,29.87,SSW,203,0.0,0.0,92,0.00,,,0.00,WUHU216HW,2013-09-03 10:45:00,
2013-09-03 06:50:00,62.9,60.6,29.87,SSW,203,0.0,0.0,92,0.00,,,0.00,WUHU216HW,2013-09-03 10:50:00,
2013-09-03 06:56:00,62.9,60.6,29.88,SSW,203,0.0,0.0,92,0.00,,,0.00,WUHU216HW,2013-09-03 10:56:00,
2013-09-03 07:02:00,62.9,60.6,29.88,SSW,203,0.0,0.0,92,0.00,,,0.00,WUHU216HW,2013-09-03 11:02:00,
2013-09-03 07:08:00,63.1,60.8,29.88,SSW,203,0.0,0.0,92,0.00,,,0.00,WUHU216HW,2013-09-03 11:08:00,
2013-09-03 07:14:00,63.1,60.8,29.88,SSW,203,0.0,0.0,92,0.00,,,0.00,WUHU216HW,2013-09-03 11:14:00,
2013-09-03 07:19:00,63.1,60.8,29.89,SSW,203,0.0,0.0,92,0.00,,,0.00,WUHU216HW,2013-09-03 11:19:00,
2013-09-03 07:24:00,63.1,60.8,29.89,SSW,203,0.0,0.0,92,0.00,,,0.00,WUHU216HW,2013-09-03 11:24:00,
2013-09-03 07:29:00,63.1,61.1,29.89,SSW,203,0.0,0.0,93,0.00,,,0.00,WUHU216HW,2013-09-03 11:29:00,
2013-09-03 07:35:00,63.1,61.1,29.89,SSW,203,0.0,0.0,93,0.00,,,0.00,WUHU216HW,2013-09-03 11:35:00,
2013-09-03 07:41:00,63.3,61.3,29.90,SSW,203,0.0,0.0,93,0.00,,,0.00,WUHU216HW,2013-09-03 11:41:00,
2013-09-03 07:46:00,63.1,61.1,29.89,SSW,203,0.0,0.0,93,0.00,,,0.00,WUHU216HW,2013-09-03 11:46:00,
2013-09-03 07:51:00,63.3,61.3,29.90,SSW,203,0.0,0.0,93,0.00,,,0.00,WUHU216HW,2013-09-03 11:51:00,
2013-09-03 07:57:00,63.5,61.4,29.90,SSW,203,0.0,0.0,93,0.00,,,0.00,WUHU216HW,2013-09-03 11:57:00,
2013-09-03 08:02:00,63.5,61.4,29.90,SSW,203,0.0,0.0,93,0.00,,,0.00,WUHU216HW,2013-09-03 12:02:00,
2013-09-03 08:08:00,63.6,61.6,29.91,SSW,203,0.0,0.0,93,0.00,,,0.00,WUHU216HW,2013-09-03 12:08:00,
2013-09-03 08:14:00,63.6,61.6,29.91,SW,225,0.0,0.0,93,0.00,,,0.00,WUHU216HW,2013-09-03 12:14:00,
2013-09-03 08:19:00,63.6,61.6,29.92,SW,225,0.0,0.0,93,0.00,,,0.00,WUHU216HW,2013-09-03 12:19:00,
2013-09-03 08:24:00,63.6,61.6,29.92,SW,225,0.0,0.0,93,0.00,,,0.00,WUHU216HW,2013-09-03 12:24:00,
2013-09-03 08:30:00,64.0,62.0,29.92,SW,225,0.0,0.0,93,0.00,,,0.00,WUHU216HW,2013-09-03 12:30:00,
2013-09-03 08:36:00,64.0,62.0,29.91,SW,225,0.0,0.0,93,0.00,,,0.00,WUHU216HW,2013-09-03 12:36:00,
2013-09-03 08:42:00,64.2,62.2,29.92,SW,225,0.0,0.0,93,0.00,,,0.00,WUHU216HW,2013-09-03 12:42:00,
2013-09-03 08:47:00,64.4,62.3,29.92,SW,225,0.0,0.0,93,0.00,,,0.00,WUHU216HW,2013-09-03 12:47:00,
2013-09-03 08:53:00,64.7,62.7,29.92,SW,225,0.0,0.0,93,0.00,,,0.00,WUHU216HW,2013-09-03 12:53:00,
2013-09-03 08:58:00,64.9,62.8,29.92,SW,225,0.0,0.0,93,0.00,,,0.00,WUHU216HW,2013-09-03 12:58:00,
2013-09-03 09:03:00,65.1,62.7,29.92,SW,225,0.0,0.0,92,0.00,,,0.00,WUHU216HW,2013-09-03 13:03:00,
2013-09-03 09:08:00,65.4,63.0,29.92,SW,225,0.0,0.0,92,0.00,,,0.00,WUHU216HW,2013-09-03 13:08:00,
2013-09-03 09:14:00,65.8,63.4,29.92,SW,225,0.0,0.0,92,0.00,,,0.00,WUHU216HW,2013-09-03 13:14:00,
2013-09-03 09:19:00,66.0,63.2,29.92,SW,225,0.0,0.0,91,0.00,,,0.00,WUHU216HW,2013-09-03 13:19:00,
2013-09-03 09:25:00,66.3,63.6,29.92,SW,225,0.0,0.0,91,0.00,,,0.00,WUHU216HW,2013-09-03 13:25:00,
2013-09-03 09:31:00,66.7,63.6,29.92,SW,225,0.0,0.0,90,0.00,,,0.00,WUHU216HW,2013-09-03 13:31:00,
2013-09-03 09:36:00,66.7,63.6,29.92,SW,225,0.0,0.0,90,0.00,,,0.00,WUHU216HW,2013-09-03 13:36:00,
2013-09-03 09:41:00,66.7,63.3,29.92,NW,315,0.0,0.0,89,0.00,,,0.00,WUHU216HW,2013-09-03 13:41:00,
2013-09-03 09:47:00,67.1,63.7,29.92,NW,315,0.0,0.0,89,0.00,,,0.00,WUHU216HW,2013-09-03 13:47:00,
2013-09-03 09:52:00,67.6,63.9,29.93,WSW,248,0.0,0.0,88,0.00,,,0.00,WUHU216HW,2013-09-03 13:52:00,
2013-09-03 09:57:00,68.1,64.4,29.93,WNW,293,0.0,0.0,88,0.00,,,0.00,WUHU216HW,2013-09-03 13:57:00,
2013-09-03 10:03:00,68.7,64.3,29.93,NNW,338,0.0,0.0,86,0.00,,,0.00,WUHU216HW,2013-09-03 14:03:00,
2013-09-03 10:08:00,68.7,64.0,29.93,NNW,338,0.0,0.0,85,0.00,,,0.00,WUHU216HW,2013-09-03 14:08:00,
2013-09-03 10:13:00,68.5,63.5,29.93,North,0,0.0,0.0,84,0.00,,,0.00,WUHU216HW,2013-09-03 14:13:00,
2013-09-03 10:19:00,68.3,62.9,29.93,WNW,293,0.0,0.0,83,0.00,,,0.00,WUHU216HW,2013-09-03 14:19:00,
2013-09-03 10:25:00,68.9,63.8,29.93,West,270,0.0,0.0,84,0.00,,,0.00,WUHU216HW,2013-09-03 14:25:00,
2013-09-03 10:30:00,69.4,64.0,29.93,WNW,293,0.0,0.0,83,0.00,,,0.00,WUHU216HW,2013-09-03 14:30:00,
2013-09-03 10:35:00,69.8,63.6,29.93,NE,45,0.0,0.0,81,0.00,,,0.00,WUHU216HW,2013-09-03 14:35:00,
2013-09-03 10:41:00,70.1,63.6,29.93,NNE,23,0.0,0.0,80,0.00,,,0.00,WUHU216HW,2013-09-03 14:41:00,
2013-09-03 10:46:00,70.5,64.0,29.93,West,270,0.0,0.0,80,0.00,,,0.00,WUHU216HW,2013-09-03 14:46:00,
2013-09-03 10:52:00,70.8,64.0,29.93,NNE,23,0.0,0.0,79,0.00,,,0.00,WUHU216HW,2013-09-03 14:52:00,
2013-09-03 10:58:00,70.8,63.6,29.93,NNE,23,0.0,0.0,78,0.00,,,0.00,WUHU216HW,2013-09-03 14:58:00,
2013-09-03 11:04:00,70.8,64.0,29.93,NNE,23,0.0,0.0,79,0.00,,,0.00,WUHU216HW,2013-09-03 15:04:00,
2013-09-03 11:09:00,71.2,64.0,29.93,NNE,23,0.0,0.0,78,0.00,,,0.00,WUHU216HW,2013-09-03 15:09:00,
2013-09-03 11:14:00,70.8,63.6,29.93,NNE,23,0.0,0.0,78,0.00,,,0.00,WUHU216HW,2013-09-03 15:14:00,
2013-09-03 11:20:00,70.7,63.0,29.94,SW,225,0.0,0.0,77,0.00,,,0.00,WUHU216HW,2013-09-03 15:20:00,
2013-09-03 11:26:00,70.8,62.8,29.94,NNE,23,0.0,0.0,76,0.00,,,0.00,WUHU216HW,2013-09-03 15:26:00,
2013-09-03 11:31:00,71.4,63.4,29.94,North,0,0.0,0.0,76,0.00,,,0.00,WUHU216HW,2013-09-03 15:31:00,
2013-09-03 11:37:00,72.1,63.3,29.94,NW,315,0.0,0.0,74,0.00,,,0.00,WUHU216HW,2013-09-03 15:37:00,
2013-09-03 11:42:00,72.6,63.5,29.94,NW,315,0.0,0.0,73,0.00,,,0.00,WUHU216HW,2013-09-03 15:42:00,
2013-09-03 11:47:00,72.3,62.8,29.94,NW,315,0.0,0.0,72,0.00,,,0.00,WUHU216HW,2013-09-03 15:47:00,
2013-09-03 11:53:00,72.3,62.8,29.94,SW,225,0.0,0.0,72,0.00,,,0.00,WUHU216HW,2013-09-03 15:53:00,
2013-09-03 11:58:00,72.6,62.7,29.94,NNW,338,0.0,0.0,71,0.00,,,0.00,WUHU216HW,2013-09-03 15:58:00,
2013-09-03 12:04:00,73.5,63.3,29.94,WSW,248,0.0,0.0,70,0.00,,,0.00,WUHU216HW,2013-09-03 16:04:00,
2013-09-03 12:09:00,74.8,63.9,29.94,WNW,293,0.0,0.0,70,0.00,,,0.00,WUHU216HW,2013-09-03 16:09:00,
2013-09-03 12:14:00,75.0,63.7,29.94,NNW,338,0.0,0.0,68,0.00,,,0.00,WUHU216HW,2013-09-03 16:14:00,
2013-09-03 12:20:00,74.8,62.6,29.94,SW,225,0.0,0.0,66,0.00,,,0.00,WUHU216HW,2013-09-03 16:20:00,
2013-09-03 12:25:00,74.8,62.6,29.94,NW,315,0.0,0.0,66,0.00,,,0.00,WUHU216HW,2013-09-03 16:25:00,
2013-09-03 12:31:00,75.5,62.9,29.94,West,270,0.0,0.0,65,0.00,,,0.00,WUHU216HW,2013-09-03 16:31:00,
2013-09-03 12:37:00,75.7,62.2,29.94,WSW,248,0.0,0.0,63,0.00,,,0.00,WUHU216HW,2013-09-03 16:37:00,
2013-09-03 12:42:00,75.9,62.4,29.94,SSW,203,0.0,0.0,63,0.00,,,0.00,WUHU216HW,2013-09-03 16:42:00,
2013-09-03 12:48:00,76.2,62.2,29.94,NW,315,0.0,0.0,62,0.00,,,0.00,WUHU216HW,2013-09-03 16:48:00,
2013-09-03 12:53:00,76.6,62.6,29.94,WSW,248,0.0,0.0,62,0.00,,,0.00,WUHU216HW,2013-09-03 16:53:00,
2013-09-03 12:59:00,76.8,62.7,29.94,West,270,0.0,0.0,62,0.00,,,0.00,WUHU216HW,2013-09-03 16:59:00,
2013-09-03 13:05:00,76.2,62.2,29.94,WSW,248,0.0,0.0,62,0.00,,,0.00,WUHU216HW,2013-09-03 17:05:00,
2013-09-03 13:10:00,75.7,61.7,29.94,West,270,0.0,0.0,62,0.00,,,0.00,WUHU216HW,2013-09-03 17:10:00,
2013-09-03 13:16:00,75.9,62.4,29.94,WSW,248,0.0,0.0,63,0.00,,,0.00,WUHU216HW,2013-09-03 17:16:00,
2013-09-03 13:21:00,76.4,62.9,29.94,SW,225,0.0,0.0,63,0.00,,,0.00,WUHU216HW,2013-09-03 17:21:00,
2013-09-03 13:26:00,77.3,62.8,29.93,NNW,338,0.0,0.0,62,0.00,,,0.00,WUHU216HW,2013-09-03 17:26:00,
2013-09-03 13:31:00,77.3,62.4,29.93,SW,225,0.0,0.0,60,0.00,,,0.00,WUHU216HW,2013-09-03 17:31:00,
2013-09-03 13:37:00,77.1,62.2,29.94,NW,315,0.0,0.0,60,0.00,,,0.00,WUHU216HW,2013-09-03 17:37:00,
2013-09-03 13:42:00,77.5,62.0,29.94,West,270,0.0,0.0,59,0.00,,,0.00,WUHU216HW,2013-09-03 17:42:00,
2013-09-03 13:48:00,77.9,61.9,29.94,WSW,248,0.0,0.0,58,0.00,,,0.00,WUHU216HW,2013-09-03 17:48:00,
2013-09-03 13:53:00,78.4,62.4,29.93,NNE,23,0.0,0.0,58,0.00,,,0.00,WUHU216HW,2013-09-03 17:53:00,
2013-09-03 13:59:00,77.5,61.0,29.93,WSW,248,0.0,0.0,57,0.00,,,0.00,WUHU216HW,2013-09-03 17:59:00,
2013-09-03 14:05:00,77.5,61.5,29.93,WSW,248,0.0,0.0,58,0.00,,,0.00,WUHU216HW,2013-09-03 18:05:00,
2013-09-03 14:11:00,77.7,61.2,29.93,NNW,338,0.0,0.0,57,0.00,,,0.00,WUHU216HW,2013-09-03 18:11:00,
2013-09-03 14:17:00,77.3,60.8,29.93,WSW,248,0.0,0.0,57,0.00,,,0.00,WUHU216HW,2013-09-03 18:17:00,
2013-09-03 14:22:00,77.5,61.0,29.93,WSW,248,0.0,0.0,57,0.00,,,0.00,WUHU216HW,2013-09-03 18:22:00,
2013-09-03 14:28:00,78.6,61.5,29.93,WSW,248,0.0,0.0,56,0.00,,,0.00,WUHU216HW,2013-09-03 18:28:00,
2013-09-03 14:33:00,78.9,60.8,29.92,WSW,248,0.0,0.0,54,0.00,,,0.00,WUHU216HW,2013-09-03 18:33:00,
2013-09-03 14:39:00,79.5,61.8,29.92,WSW,248,0.0,0.0,55,0.00,,,0.00,WUHU216HW,2013-09-03 18:39:00,
2013-09-03 14:45:00,79.8,62.2,29.93,West,270,0.0,0.0,55,0.00,,,0.00,WUHU216HW,2013-09-03 18:45:00,
2013-09-03 14:51:00,79.8,61.7,29.93,North,0,0.0,0.0,54,0.00,,,0.00,WUHU216HW,2013-09-03 18:51:00,
2013-09-03 14:56:00,79.5,61.3,29.93,WSW,248,0.0,0.0,54,0.00,,,0.00,WUHU216HW,2013-09-03 18:56:00,
2013-09-03 15:02:00,78.9,60.8,29.93,NNE,23,0.0,0.0,54,0.00,,,0.00,WUHU216HW,2013-09-03 19:02:00,
2013-09-03 15:07:00,77.7,59.7,29.93,NNE,23,0.0,0.0,54,0.00,,,0.00,WUHU216HW,2013-09-03 19:07:00,
2013-09-03 15:13:00,77.3,60.3,29.93,WSW,248,0.0,0.0,56,0.00,,,0.00,WUHU216HW,2013-09-03 19:13:00,
2013-09-03 15:19:00,77.7,60.7,29.93,West,270,0.0,0.0,56,0.00,,,0.00,WUHU216HW,2013-09-03 19:19:00,
2013-09-03 15:24:00,77.3,59.8,29.93,WSW,248,0.0,0.0,55,0.00,,,0.00,WUHU216HW,2013-09-03 19:24:00,
2013-09-03 15:30:00,77.5,60.0,29.92,WSW,248,0.0,0.0,55,0.00,,,0.00,WUHU216HW,2013-09-03 19:30:00,
2013-09-03 15:35:00,78.0,60.5,29.92,WSW,248,0.0,0.0,55,0.00,,,0.00,WUHU216HW,2013-09-03 19:35:00,
2013-09-03 15:41:00,78.6,61.0,29.92,WSW,248,0.0,0.0,55,0.00,,,0.00,WUHU216HW,2013-09-03 19:41:00,
2013-09-03 15:47:00,78.4,60.3,29.92,NNE,23,0.0,0.0,54,0.00,,,0.00,WUHU216HW,2013-09-03 19:47:00,
2013-09-03 15:52:00,77.5,60.0,29.92,NNE,23,0.0,0.0,55,0.00,,,0.00,WUHU216HW,2013-09-03 19:52:00,
2013-09-03 15:58:00,77.5,60.5,29.92,WSW,248,0.0,0.0,56,0.00,,,0.00,WUHU216HW,2013-09-03 19:58:00,
2013-09-03 16:03:00,78.0,61.0,29.92,NNW,338,0.0,0.0,56,0.00,,,0.00,WUHU216HW,2013-09-03 20:03:00,
2013-09-03 16:08:00,78.6,62.1,29.92,West,270,0.0,0.0,57,0.00,,,0.00,WUHU216HW,2013-09-03 20:08:00,
2013-09-03 16:13:00,79.1,62.0,29.93,WSW,248,0.0,0.0,56,0.00,,,0.00,WUHU216HW,2013-09-03 20:13:00,
2013-09-03 16:19:00,78.9,61.9,29.93,West,270,0.0,0.0,56,0.00,,,0.00,WUHU216HW,2013-09-03 20:19:00,
2013-09-03 16:24:00,78.6,61.0,29.93,NW,315,0.0,0.0,55,0.00,,,0.00,WUHU216HW,2013-09-03 20:24:00,
2013-09-03 16:30:00,78.0,60.5,29.93,NW,315,0.0,0.0,55,0.00,,,0.00,WUHU216HW,2013-09-03 20:30:00,
2013-09-03 16:36:00,77.1,60.2,29.93,North,0,0.0,0.0,56,0.00,,,0.00,WUHU216HW,2013-09-03 20:36:00,
2013-09-03 16:42:00,76.6,60.7,29.92,NNE,23,0.0,0.0,58,0.00,,,0.00,WUHU216HW,2013-09-03 20:42:00,
2013-09-03 16:48:00,76.2,60.4,29.92,North,0,0.0,0.0,58,0.00,,,0.00,WUHU216HW,2013-09-03 20:48:00,
2013-09-03 16:54:00,75.9,60.0,29.93,NW,315,0.0,0.0,58,0.00,,,0.00,WUHU216HW,2013-09-03 20:54:00,
2013-09-03 16:59:00,75.5,59.7,29.93,WSW,248,0.0,0.0,58,0.00,,,0.00,WUHU216HW,2013-09-03 20:59:00,
2013-09-03 17:04:00,75.7,60.4,29.93,WSW,248,0.0,0.0,59,0.00,,,0.00,WUHU216HW,2013-09-03 21:04:00,
2013-09-03 17:10:00,75.3,59.5,29.93,NNE,23,0.0,0.0,58,0.00,,,0.00,WUHU216HW,2013-09-03 21:10:00,
2013-09-03 17:15:00,74.8,59.5,29.94,WSW,248,0.0,0.0,59,0.00,,,0.00,WUHU216HW,2013-09-03 21:15:00,
2013-09-03 17:20:00,74.4,59.7,29.94,West,270,0.0,0.0,60,0.00,,,0.00,WUHU216HW,2013-09-03 21:20:00,
2013-09-03 17:25:00,74.4,60.1,29.94,North,0,0.0,0.0,61,0.00,,,0.00,WUHU216HW,2013-09-03 21:25:00,
2013-09-03 17:35:00,73.9,59.6,29.94,WSW,248,0.0,0.0,61,0.00,,,0.00,WUHU216HW,2013-09-03 21:35:00,
2013-09-03 17:40:00,73.9,59.6,29.95,North,0,0.0,0.0,61,0.00,,,0.00,WUHU216HW,2013-09-03 21:40:00,
2013-09-03 17:46:00,73.9,59.6,29.95,NNW,338,0.0,0.0,61,0.00,,,0.00,WUHU216HW,2013-09-03 21:46:00,
2013-09-03 17:51:00,73.7,59.4,29.95,North,0,0.0,0.0,61,0.00,,,0.00,WUHU216HW,2013-09-03 21:51:00,
2013-09-03 17:57:00,73.2,59.3,29.95,NNE,23,0.0,0.0,62,0.00,,,0.00,WUHU216HW,2013-09-03 21:57:00,
2013-09-03 18:03:00,72.6,58.8,29.95,West,270,0.0,0.0,62,0.00,,,0.00,WUHU216HW,2013-09-03 22:03:00,
2013-09-03 18:08:00,72.5,59.1,29.95,NNW,338,0.0,0.0,63,0.00,,,0.00,WUHU216HW,2013-09-03 22:08:00,
2013-09-03 18:14:00,72.3,58.9,29.95,North,0,0.0,0.0,63,0.00,,,0.00,WUHU216HW,2013-09-03 22:14:00,
2013-09-03 18:19:00,72.3,58.9,29.95,South,180,0.0,0.0,63,0.00,,,0.00,WUHU216HW,2013-09-03 22:19:00,
2013-09-03 18:25:00,72.3,58.9,29.95,NNE,23,0.0,0.0,63,0.00,,,0.00,WUHU216HW,2013-09-03 22:25:00,
2013-09-03 18:30:00,72.3,58.9,29.95,NE,45,0.0,0.0,63,0.00,,,0.00,WUHU216HW,2013-09-03 22:30:00,
2013-09-03 18:36:00,72.1,58.8,29.95,NNE,23,0.0,0.0,63,0.00,,,0.00,WUHU216HW,2013-09-03 22:36:00,
2013-09-03 18:42:00,72.1,58.8,29.95,NNE,23,0.0,0.0,63,0.00,,,0.00,WUHU216HW,2013-09-03 22:42:00,
2013-09-03 18:47:00,71.7,58.9,29.95,NNE,23,0.0,0.0,64,0.00,,,0.00,WUHU216HW,2013-09-03 22:47:00,
2013-09-03 18:52:00,71.4,58.5,29.95,NNE,23,0.0,0.0,64,0.00,,,0.00,WUHU216HW,2013-09-03 22:52:00,
2013-09-03 18:58:00,70.8,58.4,29.96,North,0,0.0,0.0,65,0.00,,,0.00,WUHU216HW,2013-09-03 22:58:00,
2013-09-03 19:03:00,70.7,58.7,29.96,North,0,0.0,0.0,66,0.00,,,0.00,WUHU216HW,2013-09-03 23:03:00,
2013-09-03 19:08:00,70.1,58.2,29.96,North,0,0.0,0.0,66,0.00,,,0.00,WUHU216HW,2013-09-03 23:08:00,
2013-09-03 19:13:00,69.6,57.7,29.96,NNW,338,0.0,0.0,66,0.00,,,0.00,WUHU216HW,2013-09-03 23:13:00,
2013-09-03 19:19:00,69.4,57.9,29.97,NNW,338,0.0,0.0,67,0.00,,,0.00,WUHU216HW,2013-09-03 23:19:00,
2013-09-03 19:24:00,68.9,57.8,29.96,North,0,0.0,0.0,68,0.00,,,0.00,WUHU216HW,2013-09-03 23:24:00,
2013-09-03 19:30:00,68.5,57.5,29.97,North,0,0.0,0.0,68,0.00,,,0.00,WUHU216HW,2013-09-03 23:30:00,
2013-09-03 19:36:00,68.3,57.8,29.97,NNE,23,0.0,0.0,69,0.00,,,0.00,WUHU216HW,2013-09-03 23:36:00,
2013-09-03 19:41:00,68.0,57.4,29.97,NNE,23,0.0,0.0,69,0.00,,,0.00,WUHU216HW,2013-09-03 23:41:00,
2013-09-03 19:46:00,67.8,57.3,29.97,NNE,23,0.0,0.0,69,0.00,,,0.00,WUHU216HW,2013-09-03 23:46:00,
2013-09-03 19:52:00,67.6,57.5,29.97,NNE,23,0.0,0.0,70,0.00,,,0.00,WUHU216HW,2013-09-03 23:52:00,
2013-09-03 19:57:00,67.2,57.2,29.98,NNE,23,0.0,0.0,70,0.00,,,0.00,WUHU216HW,2013-09-03 23:57:00,
2013-09-03 20:03:00,66.9,57.2,29.98,NNE,23,0.0,0.0,71,0.00,,,0.00,WUHU216HW,2013-09-04 00:03:00,
2013-09-03 20:08:00,66.7,57.0,29.98,NNE,23,0.0,0.0,71,0.00,,,0.00,WUHU216HW,2013-09-04 00:08:00,
2013-09-03 20:14:00,66.2,56.4,29.99,NNE,23,0.0,0.0,71,0.00,,,0.00,WUHU216HW,2013-09-04 00:14:00,
2013-09-03 20:20:00,66.0,56.3,29.99,NNE,23,0.0,0.0,71,0.00,,,0.00,WUHU216HW,2013-09-04 00:20:00,
2013-09-03 20:25:00,66.0,56.3,29.99,NNE,23,0.0,0.0,71,0.00,,,0.00,WUHU216HW,2013-09-04 00:25:00,
2013-09-03 20:30:00,65.8,56.1,30.00,NNE,23,0.0,0.0,71,0.00,,,0.00,WUHU216HW,2013-09-04 00:30:00,
2013-09-03 20:36:00,65.6,56.3,30.00,NNE,23,0.0,0.0,72,0.00,,,0.00,WUHU216HW,2013-09-04 00:36:00,
2013-09-03 20:41:00,65.4,56.2,30.00,NNE,23,0.0,0.0,72,0.00,,,0.00,WUHU216HW,2013-09-04 00:41:00,
2013-09-03 20:47:00,65.3,56.2,30.00,NNE,23,0.0,0.0,72,0.00,,,0.00,WUHU216HW,2013-09-04 00:47:00,
2013-09-03 20:52:00,65.1,56.2,30.01,NNE,23,0.0,0.0,73,0.00,,,0.00,WUHU216HW,2013-09-04 00:52:00,
2013-09-03 20:57:00,65.1,56.2,30.00,NNE,23,0.0,0.0,73,0.00,,,0.00,WUHU216HW,2013-09-04 00:57:00,
2013-09-03 21:02:00,64.9,56.2,30.00,NNE,23,0.0,0.0,73,0.00,,,0.00,WUHU216HW,2013-09-04 01:02:00,
2013-09-03 21:08:00,64.9,56.0,30.01,NNE,23,0.0,0.0,73,0.00,,,0.00,WUHU216HW,2013-09-04 01:08:00,
2013-09-03 21:14:00,64.5,55.7,30.01,NNE,23,0.0,0.0,73,0.00,,,0.00,WUHU216HW,2013-09-04 01:14:00,
2013-09-03 21:20:00,64.4,55.5,30.01,NNE,23,0.0,0.0,73,0.00,,,0.00,WUHU216HW,2013-09-04 01:20:00,
2013-09-03 21:25:00,64.2,55.7,30.02,NNE,23,0.0,0.0,74,0.00,,,0.00,WUHU216HW,2013-09-04 01:25:00,
2013-09-03 21:31:00,64.0,55.5,30.02,NNE,23,0.0,0.0,74,0.00,,,0.00,WUHU216HW,2013-09-04 01:31:00,
2013-09-03 21:36:00,64.0,55.5,30.02,NNE,23,0.0,0.0,74,0.00,,,0.00,WUHU216HW,2013-09-04 01:36:00,
2013-09-03 21:42:00,63.6,55.5,30.02,NNE,23,0.0,0.0,75,0.00,,,0.00,WUHU216HW,2013-09-04 01:42:00,
2013-09-03 21:47:00,63.3,55.2,30.02,NNE,23,0.0,0.0,75,0.00,,,0.00,WUHU216HW,2013-09-04 01:47:00,
2013-09-03 21:53:00,63.1,55.0,30.03,NNE,23,0.0,0.0,75,0.00,,,0.00,WUHU216HW,2013-09-04 01:53:00,
2013-09-03 21:59:00,62.6,54.8,30.02,NNE,23,0.0,0.0,76,0.00,,,0.00,WUHU216HW,2013-09-04 01:59:00,
2013-09-03 22:04:00,62.4,54.6,30.03,NNE,23,0.0,0.0,76,0.00,,,0.00,WUHU216HW,2013-09-04 02:04:00,
2013-09-03 22:09:00,62.2,54.8,30.03,NNE,23,0.0,0.0,77,0.00,,,0.00,WUHU216HW,2013-09-04 02:09:00,
2013-09-03 22:14:00,61.8,54.5,30.03,NNE,23,0.0,0.0,77,0.00,,,0.00,WUHU216HW,2013-09-04 02:14:00,
2013-09-03 22:19:00,61.5,54.4,30.03,NNE,23,0.0,0.0,77,0.00,,,0.00,WUHU216HW,2013-09-04 02:19:00,
2013-09-03 22:25:00,61.5,54.2,30.03,NNE,23,0.0,0.0,77,0.00,,,0.00,WUHU216HW,2013-09-04 02:25:00,
2013-09-03 22:35:00,60.9,54.1,30.03,NNE,23,0.0,0.0,78,0.00,,,0.00,WUHU216HW,2013-09-04 02:35:00,
2013-09-03 22:41:00,60.8,53.9,30.03,NNE,23,0.0,0.0,78,0.00,,,0.00,WUHU216HW,2013-09-04 02:41:00,
2013-09-03 22:46:00,60.6,53.7,30.03,NNE,23,0.0,0.0,78,0.00,,,0.00,WUHU216HW,2013-09-04 02:46:00,
2013-09-03 22:52:00,60.4,53.6,30.03,NNE,23,0.0,0.0,78,0.00,,,0.00,WUHU216HW,2013-09-04 02:52:00,
2013-09-03 22:58:00,60.2,53.7,30.03,NNE,23,0.0,0.0,79,0.00,,,0.00,WUHU216HW,2013-09-04 02:58:00,
2013-09-03 23:03:00,60.0,53.6,30.03,NNE,23,0.0,0.0,79,0.00,,,0.00,WUHU216HW,2013-09-04 03:03:00,
2013-09-03 23:08:00,59.9,53.4,30.03,NNE,23,0.0,0.0,79,0.00,,,0.00,WUHU216HW,2013-09-04 03:08:00,
2013-09-03 23:13:00,59.7,53.6,30.03,NNE,23,0.0,0.0,80,0.00,,,0.00,WUHU216HW,2013-09-04 03:13:00,
2013-09-03 23:18:00,59.5,53.4,30.03,NNE,23,0.0,0.0,80,0.00,,,0.00,WUHU216HW,2013-09-04 03:18:00,
2013-09-03 23:24:00,59.3,53.2,30.03,NNE,23,0.0,0.0,80,0.00,,,0.00,WUHU216HW,2013-09-04 03:24:00,
2013-09-03 23:30:00,58.8,52.7,30.03,NNE,23,0.0,0.0,80,0.00,,,0.00,WUHU216HW,2013-09-04 03:30:00,
2013-09-03 23:36:00,58.8,52.7,30.03,NNE,23,0.0,0.0,80,0.00,,,0.00,WUHU216HW,2013-09-04 03:36:00,
2013-09-03 23:41:00,58.8,53.0,30.03,NNE,23,0.0,0.0,81,0.00,,,0.00,WUHU216HW,2013-09-04 03:41:00,
2013-09-03 23:46:00,58.8,53.0,30.03,NNE,23,0.0,0.0,81,0.00,,,0.00,WUHU216HW,2013-09-04 03:46:00,
2013-09-03 23:52:00,58.8,53.0,30.03,NNE,23,0.0,0.0,81,0.00,,,0.00,WUHU216HW,2013-09-04 03:52:00,
2013-09-03 23:57:00,58.6,52.8,30.03,NNE,23,0.0,0.0,81,0.00,,,0.00,WUHU216HW,2013-09-04 03:57:00,